Time;durP1;ratioP1;P1;durP2;ratioP2;P2;SDS_P1;SDS_P2;PMS_P1;PMS_P2;Temp;Humidity;BMP_temperature;BMP_pressure;BME280_temperature;BME280_humidity;BME280_pressure;Samples;Min_cycle;Max_cycle;Signal;HPM_P1;HPM_P2
2023/02/25 00:00:38;;;;;;;;;;;;;;;;;;1874615;28;7006;-64
2023/02/25 00:01:36;;;;;;;;;;;;;;;;;;1874339;28;7009;-64
2023/02/25 00:02:33;;;;;;;;;;;;;;;;;;1874484;28;7027;-65
2023/02/25 00:03:31;;;;;;;;;;;;;;;;;;1874562;28;7329;-70
2023/02/25 00:04:29;;;;;;;;;;;;;;;;;;1874354;28;7010;-64
2023/02/25 00:05:26;;;;;;;;;;;;;;;;;;1874439;28;7240;-64
2023/02/25 00:06:27;;;;;;;;;;;;;;;;;;1874261;28;7117;-64
2023/02/25 00:07:27;;;;;;;;;;;;;;;;;;1874905;28;7109;-64
2023/02/25 00:08:24;;;;;;;;;;;;;;;;;;1874823;28;7192;-64
2023/02/25 00:09:22;;;;;;;;;;;;;;;;;;1875738;28;8035;-64
2023/02/25 00:10:19;;;;;;;;;;;;;;;;;;1875718;28;7109;-64
2023/02/25 00:11:18;;;;;;;;;;;;;;;;;;1875738;28;7145;-64
2023/02/25 00:12:16;;;;;;;;;;;;;;;;;;1875266;28;7440;-64
2023/02/25 00:13:13;;;;;;;;;;;;;;;;;;1874883;28;7259;-64
2023/02/25 00:14:14;;;;;;;;;;;;;;;;;;1871303;28;7026;-64
2023/02/25 00:15:12;;;;;;;;;;;;;;;;;;1875117;28;7093;-64
2023/02/25 00:16:10;;;;;;;;;;;;;;;;;;1875843;28;7002;-64
2023/02/25 00:17:08;;;;;;;;;;;;;;;;;;1875159;28;7352;-64
2023/02/25 00:18:05;;;;;;;;;;;;;;;;;;1875300;28;7273;-65
2023/02/25 00:19:03;;;;;;;;;;;;;;;;;;1873593;28;8015;-64
2023/02/25 00:20:00;;;;;;;;;;;;;;;;;;1874316;28;8320;-63
2023/02/25 00:20:58;;;;;;;;;;;;;;;;;;1876301;28;7022;-64
2023/02/25 00:21:55;;;;;;;;;;;;;;;;;;1874262;28;7014;-64
2023/02/25 00:22:53;;;;;;;;;;;;;;;;;;1870020;28;7005;-63
2023/02/25 00:23:52;;;;;;;;;;;;;;;;;;1865953;28;8044;-64
2023/02/25 00:24:53;;;;;;;;;;;;;;;;;;1872414;28;8099;-64
2023/02/25 00:25:57;;;;;;;;;;;;;;;;;;1868138;28;7096;-64
2023/02/25 00:26:55;;;;;;;;;;;;;;;;;;1867922;28;8552;-64
2023/02/25 00:27:52;;;;;;;;;;;;;;;;;;1868259;28;7006;-64
2023/02/25 00:28:50;;;;;;;;;;;;;;;;;;1868473;28;7017;-64
2023/02/25 00:29:50;;;;;;;;;;;;;;;;;;1864275;29;7340;-64
2023/02/25 00:30:48;;;;;;;;;;;;;;;;;;1867767;28;7110;-65
2023/02/25 00:31:45;;;;;;;;;;;;;;;;;;1868399;28;8210;-64
2023/02/25 00:32:43;;;;;;;;;;;;;;;;;;1863839;29;7014;-64
2023/02/25 00:33:41;;;;;;;;;;;;;;;;;;1860208;29;7006;-65
2023/02/25 00:34:38;;;;;;;;;;;;;;;;;;1860643;29;7010;-64
2023/02/25 00:35:39;;;;;;;;;;;;;;;;;;1865789;28;7007;-64
2023/02/25 00:36:38;;;;;;;;;;;;;;;;;;1867331;28;8444;-64
2023/02/25 00:37:36;;;;;;;;;;;;;;;;;;1867228;29;7010;-64
2023/02/25 00:38:35;;;;;;;;;;;;;;;;;;1864543;29;7010;-64
2023/02/25 00:39:41;;;;;;;;;;;;;;;;;;1864024;29;7006;-64
2023/02/25 00:40:39;;;;;;;;;;;;;;;;;;1866953;28;7213;-64
2023/02/25 00:41:37;;;;;;;;;;;;;;;;;;1869529;28;7010;-64
2023/02/25 00:42:35;;;;;;;;;;;;;;;;;;1866441;28;7089;-65
2023/02/25 00:43:32;;;;;;;;;;;;;;;;;;1867023;28;7010;-64
2023/02/25 00:44:30;;;;;;;;;;;;;;;;;;1868579;28;7097;-65
2023/02/25 00:45:27;;;;;;;;;;;;;;;;;;1868407;28;7010;-65
2023/02/25 00:46:27;;;;;;;;;;;;;;;;;;1870001;28;7316;-64
2023/02/25 00:47:24;;;;;;;;;;;;;;;;;;1868215;28;7014;-64
2023/02/25 00:48:21;;;;;;;;;;;;;;;;;;1868614;28;7010;-64
2023/02/25 00:49:20;;;;;;;;;;;;;;;;;;1865838;28;7150;-64
2023/02/25 00:50:28;;;;;;;;;;;;;;;;;;1864677;28;7456;-64
2023/02/25 00:51:27;;;;;;;;;;;;;;;;;;1868593;28;7043;-64
2023/02/25 00:52:25;;;;;;;;;;;;;;;;;;1867659;28;7517;-64
2023/02/25 00:53:22;;;;;;;;;;;;;;;;;;1865327;28;7002;-64
2023/02/25 00:54:19;;;;;;;;;;;;;;;;;;1867590;28;7470;-64
2023/02/25 00:55:17;;;;;;;;;;;;;;;;;;1867728;29;7074;-64
2023/02/25 00:56:16;;;;;;;;;;;;;;;;;;1868203;28;7003;-64
2023/02/25 00:57:13;;;;;;;;;;;;;;;;;;1867556;29;8071;-64
2023/02/25 00:58:10;;;;;;;;;;;;;;;;;;1868184;28;7385;-64
2023/02/25 00:59:08;;;;;;;;;;;;;;;;;;1869112;28;7018;-64
2023/02/25 01:00:15;;;;;;;;;;;;;;;;;;1860597;29;7393;-65
2023/02/25 01:01:18;;;;;;;;;;;;;;;;;;1862604;29;7455;-65
2023/02/25 01:02:15;;;;;;;;;;;;;;;;;;1866844;28;7014;-64
2023/02/25 01:03:13;;;;;;;;;;;;;;;;;;1868226;28;7162;-64
2023/02/25 01:04:10;;;;;;;;;;;;;;;;;;1868043;28;7009;-64
2023/02/25 01:05:09;;;;;;;;;;;;;;;;;;1865347;28;7006;-64
2023/02/25 01:06:07;;;;;;;;;;;;;;;;;;1862811;29;8757;-64
2023/02/25 01:07:05;;;;;;;;;;;;;;;;;;1864721;29;7002;-64
2023/02/25 01:08:03;;;;;;;;;;;;;;;;;;1863392;29;7832;-64
2023/02/25 01:09:01;;;;;;;;;;;;;;;;;;1862033;29;8040;-64
2023/02/25 01:09:58;;;;;;;;;;;;;;;;;;1868364;29;7013;-64
2023/02/25 01:10:56;;;;;;;;;;;;;;;;;;1868650;29;7006;-64
2023/02/25 01:11:53;;;;;;;;;;;;;;;;;;1859051;29;7130;-64
2023/02/25 01:12:50;;;;;;;;;;;;;;;;;;1860432;29;7105;-64
2023/02/25 01:13:48;;;;;;;;;;;;;;;;;;1867749;29;7120;-64
2023/02/25 01:14:45;;;;;;;;;;;;;;;;;;1868520;29;7131;-64
2023/02/25 01:15:43;;;;;;;;;;;;;;;;;;1858323;29;7002;-64
2023/02/25 01:16:41;;;;;;;;;;;;;;;;;;1859337;29;7093;-64
2023/02/25 01:17:38;;;;;;;;;;;;;;;;;;1863547;29;7090;-65
2023/02/25 01:18:35;;;;;;;;;;;;;;;;;;1867987;29;7010;-64
2023/02/25 01:19:33;;;;;;;;;;;;;;;;;;1866446;29;7010;-65
2023/02/25 01:20:30;;;;;;;;;;;;;;;;;;1867720;29;7125;-64
2023/02/25 01:21:30;;;;;;;;;;;;;;;;;;1869353;29;8039;-64
2023/02/25 01:22:27;;;;;;;;;;;;;;;;;;1872208;28;7029;-64
2023/02/25 01:23:25;;;;;;;;;;;;;;;;;;1873404;28;8028;-64
2023/02/25 01:24:25;;;;;;;;;;;;;;;;;;1875108;28;7202;-64
2023/02/25 01:25:24;;;;;;;;;;;;;;;;;;1874524;28;7013;-64
2023/02/25 01:26:21;;;;;;;;;;;;;;;;;;1875530;28;7006;-64
2023/02/25 01:27:19;;;;;;;;;;;;;;;;;;1875083;28;7956;-64
2023/02/25 01:28:17;;;;;;;;;;;;;;;;;;1875414;28;7010;-64
2023/02/25 01:29:15;;;;;;;;;;;;;;;;;;1866103;29;7313;-65
2023/02/25 01:30:13;;;;;;;;;;;;;;;;;;1866350;29;7067;-64
2023/02/25 01:31:18;;;;;;;;;;;;;;;;;;1874988;28;7953;-65
2023/02/25 01:32:16;;;;;;;;;;;;;;;;;;1875814;28;7010;-65
2023/02/25 01:33:14;;;;;;;;;;;;;;;;;;1876151;28;8032;-64
2023/02/25 01:34:13;;;;;;;;;;;;;;;;;;1875617;28;7093;-64
2023/02/25 01:35:10;;;;;;;;;;;;;;;;;;1876060;28;7038;-64
2023/02/25 01:36:07;;;;;;;;;;;;;;;;;;1875774;28;7034;-64
2023/02/25 01:37:05;;;;;;;;;;;;;;;;;;1876072;28;7042;-64
2023/02/25 01:38:03;;;;;;;;;;;;;;;;;;1875549;28;8084;-64
2023/02/25 01:39:01;;;;;;;;;;;;;;;;;;1876133;28;7132;-65
2023/02/25 01:39:58;;;;;;;;;;;;;;;;;;1875908;28;7116;-64
2023/02/25 01:40:56;;;;;;;;;;;;;;;;;;1873251;28;7280;-64
2023/02/25 01:41:55;;;;;;;;;;;;;;;;;;1876392;28;7100;-64
2023/02/25 01:42:52;;;;;;;;;;;;;;;;;;1875718;28;7093;-64
2023/02/25 01:44:09;;;;;;;;;;;;;;;;;;1876235;28;8096;-64
2023/02/25 01:45:16;;;;;;;;;;;;;;;;;;1876413;28;7101;-65
2023/02/25 01:46:13;;;;;;;;;;;;;;;;;;1875609;28;8060;-65
2023/02/25 01:47:19;;;;;;;;;;;;;;;;;;1867864;29;8088;-64
2023/02/25 01:48:20;;;;;;;;;;;;;;;;;;1867923;29;7133;-65
2023/02/25 01:49:31;;;;;;;;;;;;;;;;;;1867664;29;7097;-64
2023/02/25 01:50:36;;;;;;;;;;;;;;;;;;1875942;28;7014;-64
2023/02/25 01:51:35;;;;;;;;;;;;;;;;;;1875748;28;7009;-64
2023/02/25 01:52:33;;;;;;;;;;;;;;;;;;1875581;28;7046;-64
2023/02/25 01:53:38;;;;;;;;;;;;;;;;;;1875578;28;8004;-64
2023/02/25 01:54:36;;;;;;;;;;;;;;;;;;1875595;28;7122;-64
2023/02/25 01:55:33;;;;;;;;;;;;;;;;;;1875838;28;7066;-64
2023/02/25 01:56:32;;;;;;;;;;;;;;;;;;1875959;28;7018;-64
2023/02/25 01:57:29;;;;;;;;;;;;;;;;;;1875997;28;7043;-65
2023/02/25 01:58:27;;;;;;;;;;;;;;;;;;1872850;28;7010;-64
2023/02/25 01:59:27;;;;;;;;;;;;;;;;;;1875212;28;7093;-64
2023/02/25 02:00:27;;;;;;;;;;;;;;;;;;1875817;28;8043;-64
2023/02/25 02:01:28;;;;;;;;;;;;;;;;;;1874888;28;7097;-65
2023/02/25 02:02:27;;;;;;;;;;;;;;;;;;1874818;28;7010;-64
2023/02/25 02:03:27;;;;;;;;;;;;;;;;;;1874475;28;7316;-64
2023/02/25 02:04:25;;;;;;;;;;;;;;;;;;1875361;28;7033;-64
2023/02/25 02:05:32;;;;;;;;;;;;;;;;;;1875752;28;8016;-64
2023/02/25 02:06:33;;;;;;;;;;;;;;;;;;1876092;28;7005;-64
2023/02/25 02:07:30;;;;;;;;;;;;;;;;;;1875619;28;7018;-64
2023/02/25 02:08:30;;;;;;;;;;;;;;;;;;1875638;28;7978;-64
2023/02/25 02:09:30;;;;;;;;;;;;;;;;;;1875637;28;8043;-64
2023/02/25 02:10:27;;;;;;;;;;;;;;;;;;1875841;28;7165;-65
2023/02/25 02:11:24;;;;;;;;;;;;;;;;;;1875457;28;7105;-64
2023/02/25 02:12:24;;;;;;;;;;;;;;;;;;1875223;28;7029;-64
2023/02/25 02:13:23;;;;;;;;;;;;;;;;;;1874175;28;7014;-64
2023/02/25 02:14:25;;;;;;;;;;;;;;;;;;1875917;28;7026;-64
2023/02/25 02:15:23;;;;;;;;;;;;;;;;;;1875740;28;7160;-64
2023/02/25 02:16:26;;;;;;;;;;;;;;;;;;1872787;28;7129;-64
2023/02/25 02:17:42;;;;;;;;;;;;;;;;;;1875751;28;7128;-64
2023/02/25 02:18:44;;;;;;;;;;;;;;;;;;1875849;28;7006;-64
2023/02/25 02:19:59;;;;;;;;;;;;;;;;;;1874950;28;7113;-64
2023/02/25 02:21:16;;;;;;;;;;;;;;;;;;1876108;28;7069;-64
2023/02/25 02:22:24;;;;;;;;;;;;;;;;;;1862243;28;7117;-64
2023/02/25 02:23:40;;;;;;;;;;;;;;;;;;1875377;28;8030;-67
2023/02/25 02:24:57;;;;;;;;;;;;;;;;;;1875379;28;7030;-63
2023/02/25 02:26:03;;;;;;;;;;;;;;;;;;1874425;28;7082;-64
2023/02/25 02:27:06;;;;;;;;;;;;;;;;;;1874602;28;7422;-64
2023/02/25 02:28:22;;;;;;;;;;;;;;;;;;1874953;28;7006;-64
2023/02/25 02:29:31;;;;;;;;;;;;;;;;;;1875795;28;7093;-64
2023/02/25 02:30:31;;;;;;;;;;;;;;;;;;1875793;28;7128;-64
2023/02/25 02:31:32;;;;;;;;;;;;;;;;;;1875262;28;7042;-64
2023/02/25 02:32:29;;;;;;;;;;;;;;;;;;1875093;28;7002;-64
2023/02/25 02:33:27;;;;;;;;;;;;;;;;;;1873213;28;7014;-64
2023/02/25 02:34:25;;;;;;;;;;;;;;;;;;1875458;28;7031;-64
2023/02/25 02:35:34;;;;;;;;;;;;;;;;;;1867481;29;7027;-65
2023/02/25 02:36:40;;;;;;;;;;;;;;;;;;1867758;28;7006;-64
2023/02/25 02:37:53;;;;;;;;;;;;;;;;;;1874895;28;7110;-64
2023/02/25 02:38:50;;;;;;;;;;;;;;;;;;1875911;28;7951;-64
2023/02/25 02:39:50;;;;;;;;;;;;;;;;;;1875083;28;7010;-64
2023/02/25 02:41:04;;;;;;;;;;;;;;;;;;1874887;28;7010;-65
2023/02/25 02:42:01;;;;;;;;;;;;;;;;;;1874864;28;7332;-64
2023/02/25 02:43:01;;;;;;;;;;;;;;;;;;1875224;28;7006;-64
2023/02/25 02:44:02;;;;;;;;;;;;;;;;;;1875561;28;7002;-65
2023/02/25 02:45:05;;;;;;;;;;;;;;;;;;1875089;28;7088;-64
2023/02/25 02:46:20;;;;;;;;;;;;;;;;;;1875539;28;7006;-64
2023/02/25 02:47:23;;;;;;;;;;;;;;;;;;1876340;28;8047;-64
2023/02/25 02:48:29;;;;;;;;;;;;;;;;;;1875254;28;7042;-64
2023/02/25 02:49:36;;;;;;;;;;;;;;;;;;1875166;28;7086;-64
2023/02/25 02:50:45;;;;;;;;;;;;;;;;;;1872986;28;7006;-65
2023/02/25 02:51:55;;;;;;;;;;;;;;;;;;1875179;28;7010;-64
2023/02/25 02:52:57;;;;;;;;;;;;;;;;;;1875184;28;7006;-64
2023/02/25 02:53:57;;;;;;;;;;;;;;;;;;1875267;28;7006;-64
2023/02/25 02:55:04;;;;;;;;;;;;;;;;;;1875387;28;7401;-64
2023/02/25 02:56:05;;;;;;;;;;;;;;;;;;1875322;28;7709;-64
2023/02/25 02:57:05;;;;;;;;;;;;;;;;;;1874611;28;8038;-64
2023/02/25 02:58:08;;;;;;;;;;;;;;;;;;1875310;28;7042;-65
2023/02/25 02:59:10;;;;;;;;;;;;;;;;;;1875116;28;7050;-64
2023/02/25 03:00:16;;;;;;;;;;;;;;;;;;1875184;28;8028;-64
2023/02/25 03:01:18;;;;;;;;;;;;;;;;;;1875123;28;7071;-65
2023/02/25 03:02:26;;;;;;;;;;;;;;;;;;1875637;28;7096;-64
2023/02/25 03:03:35;;;;;;;;;;;;;;;;;;1875507;28;7006;-64
2023/02/25 03:04:36;;;;;;;;;;;;;;;;;;1875910;28;7045;-65
2023/02/25 03:05:37;;;;;;;;;;;;;;;;;;1873044;28;8104;-64
2023/02/25 03:06:38;;;;;;;;;;;;;;;;;;1875594;28;7069;-65
2023/02/25 03:07:40;;;;;;;;;;;;;;;;;;1874937;28;7161;-64
2023/02/25 03:08:46;;;;;;;;;;;;;;;;;;1875152;28;7015;-64
2023/02/25 03:09:52;;;;;;;;;;;;;;;;;;1874861;28;7073;-65
2023/02/25 03:10:50;;;;;;;;;;;;;;;;;;1874744;28;7011;-64
2023/02/25 03:11:47;;;;;;;;;;;;;;;;;;1874813;28;7069;-64
2023/02/25 03:12:45;;;;;;;;;;;;;;;;;;1875137;28;7205;-64
2023/02/25 03:13:43;;;;;;;;;;;;;;;;;;1875029;28;7009;-64
2023/02/25 03:14:40;;;;;;;;;;;;;;;;;;1875074;28;7092;-65
2023/02/25 03:15:39;;;;;;;;;;;;;;;;;;1875231;28;7064;-64
2023/02/25 03:16:39;;;;;;;;;;;;;;;;;;1874460;28;8360;-64
2023/02/25 03:18:00;;;;;;;;;;;;;;;;;;1875460;28;7124;-64
2023/02/25 03:19:02;;;;;;;;;;;;;;;;;;1839762;29;7159;-64
2023/02/25 03:20:06;;;;;;;;;;;;;;;;;;1871041;28;7093;-64
2023/02/25 03:21:11;;;;;;;;;;;;;;;;;;1874719;28;7089;-64
2023/02/25 03:22:12;;;;;;;;;;;;;;;;;;1874750;28;7130;-64
2023/02/25 03:23:14;;;;;;;;;;;;;;;;;;1872577;28;7137;-64
2023/02/25 03:24:21;;;;;;;;;;;;;;;;;;1875012;28;8383;-64
2023/02/25 03:25:21;;;;;;;;;;;;;;;;;;1875016;28;7042;-64
2023/02/25 03:26:33;;;;;;;;;;;;;;;;;;1875084;28;7010;-64
2023/02/25 03:27:36;;;;;;;;;;;;;;;;;;1875199;28;7082;-64
2023/02/25 03:28:34;;;;;;;;;;;;;;;;;;1875336;28;7104;-64
2023/02/25 03:29:31;;;;;;;;;;;;;;;;;;1875385;28;7217;-64
2023/02/25 03:30:34;;;;;;;;;;;;;;;;;;1874809;28;7009;-64
2023/02/25 03:31:46;;;;;;;;;;;;;;;;;;1874801;28;7148;-64
2023/02/25 03:32:46;;;;;;;;;;;;;;;;;;1875002;28;7676;-64
2023/02/25 03:33:47;;;;;;;;;;;;;;;;;;1874136;28;7300;-64
2023/02/25 03:34:47;;;;;;;;;;;;;;;;;;1874878;28;8013;-64
2023/02/25 03:35:47;;;;;;;;;;;;;;;;;;1872681;28;7005;-64
2023/02/25 03:36:50;;;;;;;;;;;;;;;;;;1874917;28;7491;-64
2023/02/25 03:37:51;;;;;;;;;;;;;;;;;;1874635;28;7014;-64
2023/02/25 03:38:50;;;;;;;;;;;;;;;;;;1874873;28;7372;-65
2023/02/25 03:39:54;;;;;;;;;;;;;;;;;;1874789;28;7031;-64
2023/02/25 03:40:54;;;;;;;;;;;;;;;;;;1874843;28;7117;-64
2023/02/25 03:41:53;;;;;;;;;;;;;;;;;;1874036;28;7010;-64
2023/02/25 03:43:05;;;;;;;;;;;;;;;;;;1874912;28;7110;-64
2023/02/25 03:44:09;;;;;;;;;;;;;;;;;;1874792;28;7892;-64
2023/02/25 03:45:10;;;;;;;;;;;;;;;;;;1875180;28;7340;-64
2023/02/25 03:46:09;;;;;;;;;;;;;;;;;;1875083;28;7093;-64
2023/02/25 03:47:08;;;;;;;;;;;;;;;;;;1875072;28;7139;-64
2023/02/25 03:48:08;;;;;;;;;;;;;;;;;;1874966;28;7009;-65
2023/02/25 03:49:06;;;;;;;;;;;;;;;;;;1872095;28;7356;-64
2023/02/25 03:50:14;;;;;;;;;;;;;;;;;;1874799;28;7033;-64
2023/02/25 03:51:16;;;;;;;;;;;;;;;;;;1874372;28;7296;-64
2023/02/25 03:52:16;;;;;;;;;;;;;;;;;;1874788;28;7006;-64
2023/02/25 03:53:14;;;;;;;;;;;;;;;;;;1874620;28;7006;-64
2023/02/25 03:54:11;;;;;;;;;;;;;;;;;;1874821;28;7038;-65
2023/02/25 03:55:10;;;;;;;;;;;;;;;;;;1875109;28;7042;-64
2023/02/25 03:56:09;;;;;;;;;;;;;;;;;;1874679;28;7351;-64
2023/02/25 03:57:06;;;;;;;;;;;;;;;;;;1867079;29;7006;-64
2023/02/25 03:58:06;;;;;;;;;;;;;;;;;;1866862;29;7347;-64
2023/02/25 03:59:04;;;;;;;;;;;;;;;;;;1874036;28;7097;-64
2023/02/25 04:00:14;;;;;;;;;;;;;;;;;;1875135;28;7010;-64
2023/02/25 04:01:18;;;;;;;;;;;;;;;;;;1874177;28;7025;-64
2023/02/25 04:02:17;;;;;;;;;;;;;;;;;;1873288;28;7089;-64
2023/02/25 04:03:14;;;;;;;;;;;;;;;;;;1874418;28;7900;-64
2023/02/25 04:04:12;;;;;;;;;;;;;;;;;;1874083;28;7010;-64
2023/02/25 04:05:10;;;;;;;;;;;;;;;;;;1874365;28;7010;-64
2023/02/25 04:06:09;;;;;;;;;;;;;;;;;;1872463;28;8120;-64
2023/02/25 04:07:06;;;;;;;;;;;;;;;;;;1874575;28;7060;-64
2023/02/25 04:08:14;;;;;;;;;;;;;;;;;;1874539;28;7014;-64
2023/02/25 04:09:12;;;;;;;;;;;;;;;;;;1874523;28;7185;-64
2023/02/25 04:10:11;;;;;;;;;;;;;;;;;;1872644;28;7120;-65
2023/02/25 04:11:09;;;;;;;;;;;;;;;;;;1874599;28;7114;-64
2023/02/25 04:12:07;;;;;;;;;;;;;;;;;;1874326;28;7187;-64
2023/02/25 04:13:04;;;;;;;;;;;;;;;;;;1873124;28;7101;-64
2023/02/25 04:14:02;;;;;;;;;;;;;;;;;;1874788;28;7212;-64
2023/02/25 04:14:59;;;;;;;;;;;;;;;;;;1874380;28;7038;-64
2023/02/25 04:15:57;;;;;;;;;;;;;;;;;;1873565;28;7010;-64
2023/02/25 04:16:54;;;;;;;;;;;;;;;;;;1874089;28;8015;-64
2023/02/25 04:17:51;;;;;;;;;;;;;;;;;;1874229;28;7077;-64
2023/02/25 04:18:49;;;;;;;;;;;;;;;;;;1874174;28;7005;-64
2023/02/25 04:19:46;;;;;;;;;;;;;;;;;;1874506;28;8122;-64
2023/02/25 04:20:44;;;;;;;;;;;;;;;;;;1874519;28;7042;-64
2023/02/25 04:21:41;;;;;;;;;;;;;;;;;;1874876;28;7309;-64
2023/02/25 04:22:39;;;;;;;;;;;;;;;;;;1873351;28;7050;-64
2023/02/25 04:23:36;;;;;;;;;;;;;;;;;;1874627;28;7078;-64
2023/02/25 04:24:33;;;;;;;;;;;;;;;;;;1873920;28;7010;-64
2023/02/25 04:25:31;;;;;;;;;;;;;;;;;;1874361;28;7077;-64
2023/02/25 04:26:28;;;;;;;;;;;;;;;;;;1874364;28;7443;-64
2023/02/25 04:27:26;;;;;;;;;;;;;;;;;;1871960;28;7097;-64
2023/02/25 04:28:23;;;;;;;;;;;;;;;;;;1874545;28;8028;-64
2023/02/25 04:29:20;;;;;;;;;;;;;;;;;;1867170;29;7010;-64
2023/02/25 04:30:18;;;;;;;;;;;;;;;;;;1866893;29;7006;-64
2023/02/25 04:31:15;;;;;;;;;;;;;;;;;;1873354;28;7006;-64
2023/02/25 04:32:13;;;;;;;;;;;;;;;;;;1874444;28;8023;-64
2023/02/25 04:33:10;;;;;;;;;;;;;;;;;;1874759;28;7138;-64
2023/02/25 04:34:08;;;;;;;;;;;;;;;;;;1874397;28;7002;-65
2023/02/25 04:35:10;;;;;;;;;;;;;;;;;;1874264;28;7128;-64
2023/02/25 04:36:21;;;;;;;;;;;;;;;;;;1873955;28;7110;-64
2023/02/25 04:37:18;;;;;;;;;;;;;;;;;;1873590;28;7093;-64
2023/02/25 04:38:16;;;;;;;;;;;;;;;;;;1874882;28;8108;-65
2023/02/25 04:39:15;;;;;;;;;;;;;;;;;;1874100;28;7181;-64
2023/02/25 04:40:14;;;;;;;;;;;;;;;;;;1874511;28;7093;-64
2023/02/25 04:41:11;;;;;;;;;;;;;;;;;;1874519;28;7006;-64
2023/02/25 04:42:09;;;;;;;;;;;;;;;;;;1874506;28;7092;-64
2023/02/25 04:43:08;;;;;;;;;;;;;;;;;;1874567;28;7121;-64
2023/02/25 04:44:06;;;;;;;;;;;;;;;;;;1874470;28;7013;-64
2023/02/25 04:45:05;;;;;;;;;;;;;;;;;;1873304;28;8027;-64
2023/02/25 04:46:02;;;;;;;;;;;;;;;;;;1874752;28;8006;-64
2023/02/25 04:47:00;;;;;;;;;;;;;;;;;;1875001;28;7097;-64
2023/02/25 04:47:58;;;;;;;;;;;;;;;;;;1874167;28;8045;-64
2023/02/25 04:48:55;;;;;;;;;;;;;;;;;;1866695;29;7184;-64
2023/02/25 04:49:52;;;;;;;;;;;;;;;;;;1866794;29;7093;-64
2023/02/25 04:50:50;;;;;;;;;;;;;;;;;;1873462;28;7093;-64
2023/02/25 04:51:50;;;;;;;;;;;;;;;;;;1874661;28;7010;-64
2023/02/25 04:52:47;;;;;;;;;;;;;;;;;;1875189;28;7034;-64
2023/02/25 04:53:45;;;;;;;;;;;;;;;;;;1874849;28;7029;-64
2023/02/25 04:54:42;;;;;;;;;;;;;;;;;;1875025;28;8099;-64
2023/02/25 04:55:40;;;;;;;;;;;;;;;;;;1874906;28;7997;-64
2023/02/25 04:56:38;;;;;;;;;;;;;;;;;;1874488;28;7090;-64
2023/02/25 04:57:41;;;;;;;;;;;;;;;;;;1874757;28;7010;-64
2023/02/25 04:58:38;;;;;;;;;;;;;;;;;;1874928;28;7129;-64
2023/02/25 04:59:36;;;;;;;;;;;;;;;;;;1875274;28;8406;-65
2023/02/25 05:00:33;;;;;;;;;;;;;;;;;;1875269;28;7026;-64
2023/02/25 05:01:31;;;;;;;;;;;;;;;;;;1874561;28;7120;-64
2023/02/25 05:02:31;;;;;;;;;;;;;;;;;;1872225;28;8021;-64
2023/02/25 05:03:28;;;;;;;;;;;;;;;;;;1866927;29;7021;-64
2023/02/25 05:04:26;;;;;;;;;;;;;;;;;;1866652;29;7046;-64
2023/02/25 05:05:23;;;;;;;;;;;;;;;;;;1873666;28;7014;-64
2023/02/25 05:06:24;;;;;;;;;;;;;;;;;;1875434;28;7309;-64
2023/02/25 05:07:21;;;;;;;;;;;;;;;;;;1875170;28;7010;-65
2023/02/25 05:08:19;;;;;;;;;;;;;;;;;;1873666;28;7104;-64
2023/02/25 05:09:16;;;;;;;;;;;;;;;;;;1874879;28;8158;-64
2023/02/25 05:10:14;;;;;;;;;;;;;;;;;;1873465;28;8000;-63
2023/02/25 05:11:11;;;;;;;;;;;;;;;;;;1873609;29;7051;-64
2023/02/25 05:12:09;;;;;;;;;;;;;;;;;;1875363;28;7065;-64
2023/02/25 05:13:06;;;;;;;;;;;;;;;;;;1872990;29;7100;-64
2023/02/25 05:14:03;;;;;;;;;;;;;;;;;;1874449;29;7424;-64
2023/02/25 05:15:04;;;;;;;;;;;;;;;;;;1873742;29;7092;-64
2023/02/25 05:16:05;;;;;;;;;;;;;;;;;;1874597;29;7123;-64
2023/02/25 05:17:03;;;;;;;;;;;;;;;;;;1874688;29;7010;-64
2023/02/25 05:18:01;;;;;;;;;;;;;;;;;;1874801;29;7006;-64
2023/02/25 05:18:58;;;;;;;;;;;;;;;;;;1872615;29;7994;-63
2023/02/25 05:19:57;;;;;;;;;;;;;;;;;;1874454;29;8922;-64
2023/02/25 05:20:54;;;;;;;;;;;;;;;;;;1867181;29;7006;-65
2023/02/25 05:21:52;;;;;;;;;;;;;;;;;;1866900;29;7432;-64
2023/02/25 05:22:50;;;;;;;;;;;;;;;;;;1873914;29;8095;-64
2023/02/25 05:23:49;;;;;;;;;;;;;;;;;;1872351;29;7153;-64
2023/02/25 05:24:46;;;;;;;;;;;;;;;;;;1874761;29;7142;-64
2023/02/25 05:25:43;;;;;;;;;;;;;;;;;;1874902;29;7078;-64
2023/02/25 05:26:41;;;;;;;;;;;;;;;;;;1873986;29;7129;-64
2023/02/25 05:27:39;;;;;;;;;;;;;;;;;;1874899;29;7217;-64
2023/02/25 05:28:37;;;;;;;;;;;;;;;;;;1874098;29;7085;-64
2023/02/25 05:29:35;;;;;;;;;;;;;;;;;;1874938;29;7018;-64
2023/02/25 05:30:32;;;;;;;;;;;;;;;;;;1873853;29;7018;-64
2023/02/25 05:31:29;;;;;;;;;;;;;;;;;;1874427;29;7136;-64
2023/02/25 05:32:28;;;;;;;;;;;;;;;;;;1874792;29;7014;-64
2023/02/25 05:33:26;;;;;;;;;;;;;;;;;;1874719;29;8008;-64
2023/02/25 05:34:24;;;;;;;;;;;;;;;;;;1872172;29;7089;-63
2023/02/25 05:35:21;;;;;;;;;;;;;;;;;;1875261;29;8118;-64
2023/02/25 05:36:19;;;;;;;;;;;;;;;;;;1874633;29;7151;-64
2023/02/25 05:37:17;;;;;;;;;;;;;;;;;;1873604;29;7014;-64
2023/02/25 05:38:14;;;;;;;;;;;;;;;;;;1874409;29;7031;-64
2023/02/25 05:39:13;;;;;;;;;;;;;;;;;;1874444;29;7093;-64
2023/02/25 05:40:12;;;;;;;;;;;;;;;;;;1874890;29;7091;-65
2023/02/25 05:41:11;;;;;;;;;;;;;;;;;;1875029;29;7159;-64
2023/02/25 05:42:08;;;;;;;;;;;;;;;;;;1875399;29;7336;-64
2023/02/25 05:43:06;;;;;;;;;;;;;;;;;;1874727;29;7376;-64
2023/02/25 05:44:03;;;;;;;;;;;;;;;;;;1874623;29;7592;-64
2023/02/25 05:45:00;;;;;;;;;;;;;;;;;;1874434;29;8110;-64
2023/02/25 05:46:00;;;;;;;;;;;;;;;;;;1874329;29;8042;-64
2023/02/25 05:46:57;;;;;;;;;;;;;;;;;;1874691;29;7113;-63
2023/02/25 05:47:55;;;;;;;;;;;;;;;;;;1874915;29;7435;-64
2023/02/25 05:48:53;;;;;;;;;;;;;;;;;;1875194;29;7006;-64
2023/02/25 05:49:50;;;;;;;;;;;;;;;;;;1873065;29;8027;-64
2023/02/25 05:50:49;;;;;;;;;;;;;;;;;;1872675;29;7131;-64
2023/02/25 05:51:47;;;;;;;;;;;;;;;;;;1874865;29;7148;-64
2023/02/25 05:52:45;;;;;;;;;;;;;;;;;;1867230;29;7046;-64
2023/02/25 05:53:43;;;;;;;;;;;;;;;;;;1865911;29;7360;-64
2023/02/25 05:54:41;;;;;;;;;;;;;;;;;;1873779;29;7078;-64
2023/02/25 05:55:42;;;;;;;;;;;;;;;;;;1873765;29;7014;-64
2023/02/25 05:56:39;;;;;;;;;;;;;;;;;;1874843;29;7010;-64
2023/02/25 05:57:36;;;;;;;;;;;;;;;;;;1874794;29;8067;-64
2023/02/25 05:58:34;;;;;;;;;;;;;;;;;;1874629;29;8043;-64
2023/02/25 05:59:32;;;;;;;;;;;;;;;;;;1874376;29;7014;-64
2023/02/25 06:00:30;;;;;;;;;;;;;;;;;;1874797;29;8047;-64
2023/02/25 06:01:28;;;;;;;;;;;;;;;;;;1874464;29;7130;-64
2023/02/25 06:02:26;;;;;;;;;;;;;;;;;;1874609;29;8020;-64
2023/02/25 06:03:24;;;;;;;;;;;;;;;;;;1874815;29;7205;-64
2023/02/25 06:04:21;;;;;;;;;;;;;;;;;;1875220;29;7013;-64
2023/02/25 06:05:19;;;;;;;;;;;;;;;;;;1874702;29;7037;-64
2023/02/25 06:06:21;;;;;;;;;;;;;;;;;;1874896;29;8398;-64
2023/02/25 06:07:20;;;;;;;;;;;;;;;;;;1874800;29;7006;-63
2023/02/25 06:08:18;;;;;;;;;;;;;;;;;;1866952;29;7010;-64
2023/02/25 06:09:17;;;;;;;;;;;;;;;;;;1864681;29;7101;-64
2023/02/25 06:10:15;;;;;;;;;;;;;;;;;;1874213;29;7010;-64
2023/02/25 06:11:17;;;;;;;;;;;;;;;;;;1867067;29;7010;-64
2023/02/25 06:12:14;;;;;;;;;;;;;;;;;;1867404;29;7006;-64
2023/02/25 06:13:12;;;;;;;;;;;;;;;;;;1874336;29;7142;-63
2023/02/25 06:14:09;;;;;;;;;;;;;;;;;;1874617;29;8001;-64
2023/02/25 06:15:07;;;;;;;;;;;;;;;;;;1874656;29;7010;-65
2023/02/25 06:16:05;;;;;;;;;;;;;;;;;;1874614;29;7006;-64
2023/02/25 06:17:02;;;;;;;;;;;;;;;;;;1874418;28;7139;-64
2023/02/25 06:17:59;;;;;;;;;;;;;;;;;;1875078;28;7132;-65
2023/02/25 06:18:58;;;;;;;;;;;;;;;;;;1876583;28;7013;-64
2023/02/25 06:19:56;;;;;;;;;;;;;;;;;;1875907;28;7010;-64
2023/02/25 06:20:53;;;;;;;;;;;;;;;;;;1875904;28;7009;-65
2023/02/25 06:21:53;;;;;;;;;;;;;;;;;;1875800;28;7006;-65
2023/02/25 06:22:50;;;;;;;;;;;;;;;;;;1876112;28;7097;-64
2023/02/25 06:23:49;;;;;;;;;;;;;;;;;;1874688;28;7114;-64
2023/02/25 06:24:46;;;;;;;;;;;;;;;;;;1876311;28;8031;-64
2023/02/25 06:25:44;;;;;;;;;;;;;;;;;;1876257;28;7170;-64
2023/02/25 06:26:42;;;;;;;;;;;;;;;;;;1873619;28;7013;-64
2023/02/25 06:27:39;;;;;;;;;;;;;;;;;;1875728;28;8118;-64
2023/02/25 06:28:37;;;;;;;;;;;;;;;;;;1875692;28;7010;-64
2023/02/25 06:29:35;;;;;;;;;;;;;;;;;;1876137;28;8110;-64
2023/02/25 06:30:32;;;;;;;;;;;;;;;;;;1876045;28;7064;-65
2023/02/25 06:31:30;;;;;;;;;;;;;;;;;;1876065;28;7149;-64
2023/02/25 06:32:27;;;;;;;;;;;;;;;;;;1875928;28;7006;-64
2023/02/25 06:33:25;;;;;;;;;;;;;;;;;;1875740;28;8189;-64
2023/02/25 06:34:23;;;;;;;;;;;;;;;;;;1875937;28;7106;-65
2023/02/25 06:35:22;;;;;;;;;;;;;;;;;;1875753;28;8117;-64
2023/02/25 06:36:20;;;;;;;;;;;;;;;;;;1876052;28;7154;-64
2023/02/25 06:37:18;;;;;;;;;;;;;;;;;;1875624;28;7250;-64
2023/02/25 06:38:15;;;;;;;;;;;;;;;;;;1875508;28;7006;-65
2023/02/25 06:39:12;;;;;;;;;;;;;;;;;;1874752;28;7113;-64
2023/02/25 06:40:14;;;;;;;;;;;;;;;;;;1876177;28;7124;-65
2023/02/25 06:41:14;;;;;;;;;;;;;;;;;;1875475;28;7006;-64
2023/02/25 06:42:11;;;;;;;;;;;;;;;;;;1875371;28;8206;-64
2023/02/25 06:43:09;;;;;;;;;;;;;;;;;;1876030;28;7066;-64
2023/02/25 06:44:06;;;;;;;;;;;;;;;;;;1872935;28;8032;-64
2023/02/25 06:45:04;;;;;;;;;;;;;;;;;;1875827;28;7006;-64
2023/02/25 06:46:05;;;;;;;;;;;;;;;;;;1876015;28;8030;-64
2023/02/25 06:47:03;;;;;;;;;;;;;;;;;;1875979;28;7301;-64
2023/02/25 06:48:00;;;;;;;;;;;;;;;;;;1868158;29;7113;-65
2023/02/25 06:48:58;;;;;;;;;;;;;;;;;;1867934;29;8015;-65
2023/02/25 06:49:56;;;;;;;;;;;;;;;;;;1874448;28;7092;-65
2023/02/25 06:50:53;;;;;;;;;;;;;;;;;;1875608;28;7006;-64
2023/02/25 06:51:50;;;;;;;;;;;;;;;;;;1875411;28;7946;-64
2023/02/25 06:52:48;;;;;;;;;;;;;;;;;;1875644;28;7991;-64
2023/02/25 06:53:46;;;;;;;;;;;;;;;;;;1875865;28;8021;-64
2023/02/25 06:54:44;;;;;;;;;;;;;;;;;;1876212;28;8029;-64